Thessalon, Ontario

2:59 PM EDT on April 26, 2017 (GMT -0400)
Lafarge Smelter Bay Dock | | Change Station

Elev 581 ft 46.25 °N, 83.54 °W | Updated 23 seconds ago

Overcast
Overcast
54.0 °F
Feels Like 54.0 °F
N
0.0
Wind Variable Wind from ENE
Gusts 0.0 mph

Today
High -- | Low -- °F
--% Chance of Precip.
Yesterday
High -- | Low -- °F
Precip. -- in
Pressure 29.58 in
Visibility 10.0 miles
Clouds Scattered Clouds 1300 ft
Mostly Cloudy 3900 ft
Overcast 5000 ft
Dew Point 50 °F
Humidity 86%
Rainfall 0.00 in
Snow Depth Not available.
6:28 AM 8:36 PM
New Moon, 0% visible
METAR KCIU 261856Z AUTO 11020G26KT 10SM SCT013 BKN039 OVC050 13/09 A2949 RMK AO2 PK WND 12029/1808 SLP016 T01280094
Pressure 29.58 in
Visibility 10.0 miles
Clouds Scattered Clouds 1300 ft
Mostly Cloudy 3900 ft
Overcast 5000 ft
Dew Point 50 °F
Humidity 86%
Rainfall 0.00 in
Snow Depth Not available.
6:28 AM 8:36 PM
New Moon, 0% visible
METAR KCIU 261856Z AUTO 11020G26KT 10SM SCT013 BKN039 OVC050 13/09 A2949 RMK AO2 PK WND 12029/1808 SLP016 T01280094

Get Severe Weather Alerts

Thanks for signing up!

Be on the lookout for a verification email in your inbox.

You'll start receiving the daily forecast at 8 AM.

×

10-Day Weather Forecast

Almanac

Astronomy

Apr. 26, 2017 Rise Set
Actual Time
Civil Twilight
Nautical Twilight
Astronomical Twilight
Moon
Length of Visible Light
Length of Day
Tomorrow will be .
, % of the Moon is Illuminated

Today's Extremes

Country Highs Country Lows

Community

WunderPhotos

WunderBlog® & News

Nearby

Air Quality

  Air Quality AQ Index Pollutant
Not available.

Snow Depth

Station Depth Elevation

Earthquake Activity

City Distance Mag. Time & Date
Minimum magnitude displayed is 2.5.

Coastal Water Temperatures

Place Temperature

Stations

Nearby Weather Stations

Station Location Temp. Windchill Dew Point Humidity Wind Precip. Elev Updated Type
                   

Watches & Warnings

There are currently no watches in effect.